Portada
METAR-TAF:

METAR-TAF

Aeroports :

Fourchambault

Nevers, França

latitud: 47-00N, longitud: 003-06E, altitud: 180 m

Observació

L'informe es va fer fa 3 hores i 45 minuts, a les 18:00 UTC
Vent 7 kt del Oest/Sud-Oest, variant entre Sud-Oest i Oest/Nord-Oest
Temperatura 25°C
Humitat 41%
Pressió 1015 hPa
Visibilitat 10 km o més
sense núvols per sota de 1500 mi sense presència de cumulonimbus.

METAR: LFQG 181800Z AUTO 25007KT 220V290 CAVOK 25/11 Q1015

Hora: 23:45 (21:45 UTC)


TAF: manca

Observacions i pronòstics meteorològics de més de 4000 aeroports (METAR i TAF).

Les estacions disponibles són els punts grocs i vermells al mapa.

Posi el ratolí al punt desitjat per veure el nom de l'estació.

Feu clic per veure les observacions i els pronòstics meteorològics.

Per canviar el mapa: feu clic els botons verds amb una creu de color negre per apropar; al botó verd amb un guió per allunyar la imatge; o en les fletxes verdes per a mapes adjacents.


METAR-TAF: